sensor_id;sensor_type;location;lat;lon;timestamp;P1;durP1;ratioP1;P2;durP2;ratioP2
21822;SDS011;11074;48.596;9.238;2022-12-24T00:01:34;11.25;;;3.35;;
21822;SDS011;11074;48.596;9.238;2022-12-24T00:04:00;7.63;;;3.03;;
21822;SDS011;11074;48.596;9.238;2022-12-24T00:06:26;6.20;;;2.40;;
21822;SDS011;11074;48.596;9.238;2022-12-24T00:08:52;4.43;;;1.90;;
21822;SDS011;11074;48.596;9.238;2022-12-24T00:11:18;5.57;;;1.58;;
21822;SDS011;11074;48.596;9.238;2022-12-24T00:13:44;3.13;;;1.63;;
21822;SDS011;11074;48.596;9.238;2022-12-24T00:16:10;3.45;;;1.13;;
21822;SDS011;11074;48.596;9.238;2022-12-24T00:18:36;4.30;;;1.40;;
21822;SDS011;11074;48.596;9.238;2022-12-24T00:21:02;4.35;;;1.40;;
21822;SDS011;11074;48.596;9.238;2022-12-24T00:23:30;7.28;;;1.20;;
21822;SDS011;11074;48.596;9.238;2022-12-24T00:25:56;3.60;;;1.20;;
21822;SDS011;11074;48.596;9.238;2022-12-24T00:28:22;3.28;;;1.10;;
21822;SDS011;11074;48.596;9.238;2022-12-24T00:30:47;6.05;;;1.33;;
21822;SDS011;11074;48.596;9.238;2022-12-24T00:33:13;5.53;;;1.70;;
21822;SDS011;11074;48.596;9.238;2022-12-24T00:35:39;4.38;;;1.50;;
21822;SDS011;11074;48.596;9.238;2022-12-24T00:38:05;4.43;;;1.33;;
21822;SDS011;11074;48.596;9.238;2022-12-24T00:40:32;4.38;;;1.48;;
21822;SDS011;11074;48.596;9.238;2022-12-24T00:42:59;4.85;;;1.50;;
21822;SDS011;11074;48.596;9.238;2022-12-24T00:45:24;3.90;;;1.52;;
21822;SDS011;11074;48.596;9.238;2022-12-24T00:47:52;5.65;;;1.63;;
21822;SDS011;11074;48.596;9.238;2022-12-24T00:50:18;3.45;;;1.25;;
21822;SDS011;11074;48.596;9.238;2022-12-24T00:52:44;6.57;;;1.13;;
21822;SDS011;11074;48.596;9.238;2022-12-24T00:55:09;3.90;;;1.17;;
21822;SDS011;11074;48.596;9.238;2022-12-24T00:57:35;3.25;;;1.33;;
21822;SDS011;11074;48.596;9.238;2022-12-24T01:00:02;3.53;;;1.25;;
21822;SDS011;11074;48.596;9.238;2022-12-24T01:02:29;6.00;;;1.40;;
21822;SDS011;11074;48.596;9.238;2022-12-24T01:04:54;5.05;;;1.17;;
21822;SDS011;11074;48.596;9.238;2022-12-24T01:07:39;3.47;;;1.00;;
21822;SDS011;11074;48.596;9.238;2022-12-24T01:10:11;3.70;;;1.20;;
21822;SDS011;11074;48.596;9.238;2022-12-24T01:12:39;5.32;;;1.25;;
21822;SDS011;11074;48.596;9.238;2022-12-24T01:15:06;5.03;;;1.17;;
21822;SDS011;11074;48.596;9.238;2022-12-24T01:17:33;6.00;;;1.20;;
21822;SDS011;11074;48.596;9.238;2022-12-24T01:19:59;4.88;;;1.15;;
21822;SDS011;11074;48.596;9.238;2022-12-24T01:22:27;3.22;;;1.20;;
21822;SDS011;11074;48.596;9.238;2022-12-24T01:24:52;5.15;;;1.42;;
21822;SDS011;11074;48.596;9.238;2022-12-24T01:27:18;5.45;;;1.30;;
21822;SDS011;11074;48.596;9.238;2022-12-24T01:29:44;3.20;;;1.08;;
21822;SDS011;11074;48.596;9.238;2022-12-24T01:32:09;3.40;;;1.17;;
21822;SDS011;11074;48.596;9.238;2022-12-24T01:34:35;7.18;;;1.05;;
21822;SDS011;11074;48.596;9.238;2022-12-24T01:37:01;3.65;;;1.10;;
21822;SDS011;11074;48.596;9.238;2022-12-24T01:39:27;3.58;;;1.10;;
21822;SDS011;11074;48.596;9.238;2022-12-24T01:41:52;3.92;;;1.30;;
21822;SDS011;11074;48.596;9.238;2022-12-24T01:44:41;2.33;;;1.17;;
21822;SDS011;11074;48.596;9.238;2022-12-24T01:47:25;4.70;;;1.38;;
21822;SDS011;11074;48.596;9.238;2022-12-24T01:50:01;4.72;;;1.48;;
21822;SDS011;11074;48.596;9.238;2022-12-24T01:52:39;4.43;;;1.55;;
21822;SDS011;11074;48.596;9.238;2022-12-24T01:55:09;2.88;;;1.40;;
21822;SDS011;11074;48.596;9.238;2022-12-24T01:57:43;3.80;;;1.25;;
21822;SDS011;11074;48.596;9.238;2022-12-24T02:00:19;4.47;;;1.45;;
21822;SDS011;11074;48.596;9.238;2022-12-24T02:02:45;5.35;;;1.35;;
21822;SDS011;11074;48.596;9.238;2022-12-24T02:05:18;6.28;;;1.67;;
21822;SDS011;11074;48.596;9.238;2022-12-24T02:07:54;4.25;;;1.33;;
21822;SDS011;11074;48.596;9.238;2022-12-24T02:10:22;4.22;;;1.20;;
21822;SDS011;11074;48.596;9.238;2022-12-24T02:12:47;4.53;;;1.23;;
21822;SDS011;11074;48.596;9.238;2022-12-24T02:15:18;6.70;;;1.50;;
21822;SDS011;11074;48.596;9.238;2022-12-24T02:17:48;4.93;;;1.50;;
21822;SDS011;11074;48.596;9.238;2022-12-24T02:32:54;6.80;;;1.30;;
21822;SDS011;11074;48.596;9.238;2022-12-24T02:35:43;5.80;;;1.38;;
21822;SDS011;11074;48.596;9.238;2022-12-24T02:39:18;4.05;;;1.25;;
21822;SDS011;11074;48.596;9.238;2022-12-24T02:41:35;7.82;;;1.63;;
21822;SDS011;11074;48.596;9.238;2022-12-24T02:44:27;6.38;;;1.23;;
21822;SDS011;11074;48.596;9.238;2022-12-24T02:46:58;6.35;;;1.25;;
21822;SDS011;11074;48.596;9.238;2022-12-24T02:49:26;5.15;;;1.27;;
21822;SDS011;11074;48.596;9.238;2022-12-24T02:51:52;2.22;;;0.98;;
21822;SDS011;11074;48.596;9.238;2022-12-24T02:54:18;6.28;;;1.52;;
21822;SDS011;11074;48.596;9.238;2022-12-24T03:02:29;5.57;;;1.00;;
21822;SDS011;11074;48.596;9.238;2022-12-24T03:05:17;4.18;;;1.48;;
21822;SDS011;11074;48.596;9.238;2022-12-24T03:11:07;5.90;;;1.25;;
21822;SDS011;11074;48.596;9.238;2022-12-24T03:13:37;7.57;;;1.58;;
21822;SDS011;11074;48.596;9.238;2022-12-24T03:16:04;6.22;;;1.30;;
21822;SDS011;11074;48.596;9.238;2022-12-24T03:18:41;7.22;;;1.15;;
21822;SDS011;11074;48.596;9.238;2022-12-24T03:23:47;6.15;;;1.48;;
21822;SDS011;11074;48.596;9.238;2022-12-24T03:26:15;6.85;;;1.42;;
21822;SDS011;11074;48.596;9.238;2022-12-24T03:28:44;4.75;;;1.20;;
21822;SDS011;11074;48.596;9.238;2022-12-24T03:31:11;7.22;;;1.48;;
21822;SDS011;11074;48.596;9.238;2022-12-24T03:33:37;5.15;;;1.35;;
21822;SDS011;11074;48.596;9.238;2022-12-24T03:36:04;5.60;;;1.50;;
21822;SDS011;11074;48.596;9.238;2022-12-24T03:38:31;4.20;;;1.40;;
21822;SDS011;11074;48.596;9.238;2022-12-24T03:40:58;4.95;;;1.05;;
21822;SDS011;11074;48.596;9.238;2022-12-24T03:43:23;7.68;;;1.40;;
21822;SDS011;11074;48.596;9.238;2022-12-24T03:45:49;6.10;;;1.55;;
21822;SDS011;11074;48.596;9.238;2022-12-24T03:48:15;4.60;;;1.48;;
21822;SDS011;11074;48.596;9.238;2022-12-24T03:50:41;5.65;;;1.38;;
21822;SDS011;11074;48.596;9.238;2022-12-24T03:53:06;4.93;;;1.20;;
21822;SDS011;11074;48.596;9.238;2022-12-24T03:55:32;8.00;;;1.27;;
21822;SDS011;11074;48.596;9.238;2022-12-24T03:57:58;5.85;;;1.42;;
21822;SDS011;11074;48.596;9.238;2022-12-24T04:00:23;5.85;;;1.45;;
21822;SDS011;11074;48.596;9.238;2022-12-24T04:02:49;5.82;;;1.40;;
21822;SDS011;11074;48.596;9.238;2022-12-24T04:05:16;6.30;;;1.45;;
21822;SDS011;11074;48.596;9.238;2022-12-24T04:07:44;4.53;;;1.30;;
21822;SDS011;11074;48.596;9.238;2022-12-24T04:10:11;4.43;;;1.40;;
21822;SDS011;11074;48.596;9.238;2022-12-24T04:12:38;7.97;;;1.52;;
21822;SDS011;11074;48.596;9.238;2022-12-24T04:15:04;5.68;;;1.70;;
21822;SDS011;11074;48.596;9.238;2022-12-24T04:17:30;8.55;;;1.80;;
21822;SDS011;11074;48.596;9.238;2022-12-24T04:19:56;6.03;;;1.63;;
21822;SDS011;11074;48.596;9.238;2022-12-24T04:22:22;5.45;;;1.58;;
21822;SDS011;11074;48.596;9.238;2022-12-24T04:24:48;8.93;;;1.77;;
21822;SDS011;11074;48.596;9.238;2022-12-24T04:27:14;8.93;;;2.00;;
21822;SDS011;11074;48.596;9.238;2022-12-24T04:29:40;6.72;;;2.17;;
21822;SDS011;11074;48.596;9.238;2022-12-24T04:32:05;4.25;;;1.73;;
21822;SDS011;11074;48.596;9.238;2022-12-24T04:34:31;6.05;;;1.90;;
21822;SDS011;11074;48.596;9.238;2022-12-24T04:36:57;6.93;;;2.30;;
21822;SDS011;11074;48.596;9.238;2022-12-24T04:39:22;5.68;;;2.00;;
21822;SDS011;11074;48.596;9.238;2022-12-24T04:41:48;7.25;;;1.75;;
21822;SDS011;11074;48.596;9.238;2022-12-24T04:44:14;6.97;;;1.92;;
21822;SDS011;11074;48.596;9.238;2022-12-24T04:46:39;3.58;;;1.50;;
21822;SDS011;11074;48.596;9.238;2022-12-24T04:49:06;5.40;;;1.55;;
21822;SDS011;11074;48.596;9.238;2022-12-24T04:51:32;4.57;;;1.63;;
21822;SDS011;11074;48.596;9.238;2022-12-24T04:53:58;5.38;;;1.63;;
21822;SDS011;11074;48.596;9.238;2022-12-24T04:56:26;7.05;;;1.48;;
21822;SDS011;11074;48.596;9.238;2022-12-24T04:58:54;4.53;;;1.40;;
21822;SDS011;11074;48.596;9.238;2022-12-24T05:01:25;3.80;;;1.38;;
21822;SDS011;11074;48.596;9.238;2022-12-24T05:03:54;5.50;;;2.07;;
21822;SDS011;11074;48.596;9.238;2022-12-24T05:06:22;2.97;;;1.30;;
21822;SDS011;11074;48.596;9.238;2022-12-24T05:08:55;7.07;;;1.30;;
21822;SDS011;11074;48.596;9.238;2022-12-24T05:11:22;3.35;;;1.38;;
21822;SDS011;11074;48.596;9.238;2022-12-24T05:13:48;4.07;;;1.50;;
21822;SDS011;11074;48.596;9.238;2022-12-24T05:16:18;3.45;;;1.50;;
21822;SDS011;11074;48.596;9.238;2022-12-24T05:18:45;6.55;;;1.70;;
21822;SDS011;11074;48.596;9.238;2022-12-24T05:21:15;3.17;;;1.45;;
21822;SDS011;11074;48.596;9.238;2022-12-24T05:23:45;2.78;;;1.17;;
21822;SDS011;11074;48.596;9.238;2022-12-24T05:26:35;7.55;;;1.58;;
21822;SDS011;11074;48.596;9.238;2022-12-24T05:29:09;4.90;;;1.70;;
21822;SDS011;11074;48.596;9.238;2022-12-24T05:31:38;4.25;;;1.63;;
21822;SDS011;11074;48.596;9.238;2022-12-24T05:34:05;3.83;;;1.40;;
21822;SDS011;11074;48.596;9.238;2022-12-24T05:36:31;4.57;;;1.65;;
21822;SDS011;11074;48.596;9.238;2022-12-24T05:38:57;7.00;;;1.90;;
21822;SDS011;11074;48.596;9.238;2022-12-24T05:41:23;6.53;;;1.95;;
21822;SDS011;11074;48.596;9.238;2022-12-24T05:43:50;4.38;;;1.80;;
21822;SDS011;11074;48.596;9.238;2022-12-24T05:46:16;4.90;;;1.73;;
21822;SDS011;11074;48.596;9.238;2022-12-24T05:48:45;5.95;;;1.63;;
21822;SDS011;11074;48.596;9.238;2022-12-24T05:51:13;7.10;;;1.70;;
21822;SDS011;11074;48.596;9.238;2022-12-24T05:53:43;5.70;;;1.70;;
21822;SDS011;11074;48.596;9.238;2022-12-24T05:56:11;4.65;;;1.58;;
21822;SDS011;11074;48.596;9.238;2022-12-24T05:58:41;4.75;;;1.60;;
21822;SDS011;11074;48.596;9.238;2022-12-24T06:01:08;12.43;;;4.60;;
21822;SDS011;11074;48.596;9.238;2022-12-24T06:03:35;6.95;;;1.88;;
21822;SDS011;11074;48.596;9.238;2022-12-24T06:08:30;8.95;;;2.33;;
21822;SDS011;11074;48.596;9.238;2022-12-24T06:10:58;5.28;;;2.35;;
21822;SDS011;11074;48.596;9.238;2022-12-24T06:13:27;8.25;;;2.60;;
21822;SDS011;11074;48.596;9.238;2022-12-24T06:15:54;11.10;;;2.72;;
21822;SDS011;11074;48.596;9.238;2022-12-24T06:18:21;7.03;;;2.80;;
21822;SDS011;11074;48.596;9.238;2022-12-24T06:20:54;8.48;;;2.80;;
21822;SDS011;11074;48.596;9.238;2022-12-24T06:23:22;6.30;;;1.90;;
21822;SDS011;11074;48.596;9.238;2022-12-24T06:25:49;6.72;;;1.90;;
21822;SDS011;11074;48.596;9.238;2022-12-24T06:28:15;5.30;;;1.45;;
21822;SDS011;11074;48.596;9.238;2022-12-24T06:30:45;4.63;;;1.60;;
21822;SDS011;11074;48.596;9.238;2022-12-24T06:33:12;7.13;;;1.83;;
21822;SDS011;11074;48.596;9.238;2022-12-24T06:35:39;6.00;;;1.63;;
21822;SDS011;11074;48.596;9.238;2022-12-24T06:38:05;6.97;;;1.90;;
21822;SDS011;11074;48.596;9.238;2022-12-24T06:40:31;4.50;;;1.75;;
21822;SDS011;11074;48.596;9.238;2022-12-24T06:42:57;7.10;;;2.17;;
21822;SDS011;11074;48.596;9.238;2022-12-24T06:45:22;5.18;;;2.22;;
21822;SDS011;11074;48.596;9.238;2022-12-24T06:47:48;10.02;;;3.33;;
21822;SDS011;11074;48.596;9.238;2022-12-24T06:50:14;7.00;;;3.47;;
21822;SDS011;11074;48.596;9.238;2022-12-24T06:52:40;9.10;;;3.35;;
21822;SDS011;11074;48.596;9.238;2022-12-24T06:55:06;6.05;;;2.35;;
21822;SDS011;11074;48.596;9.238;2022-12-24T06:57:32;5.80;;;2.38;;
21822;SDS011;11074;48.596;9.238;2022-12-24T06:59:58;20.30;;;2.83;;
21822;SDS011;11074;48.596;9.238;2022-12-24T07:02:24;7.97;;;2.30;;
21822;SDS011;11074;48.596;9.238;2022-12-24T07:04:50;7.28;;;2.55;;
21822;SDS011;11074;48.596;9.238;2022-12-24T07:07:16;5.00;;;2.25;;
21822;SDS011;11074;48.596;9.238;2022-12-24T07:09:42;5.60;;;2.35;;
21822;SDS011;11074;48.596;9.238;2022-12-24T07:12:07;4.78;;;2.00;;
21822;SDS011;11074;48.596;9.238;2022-12-24T07:14:33;5.10;;;2.20;;
21822;SDS011;11074;48.596;9.238;2022-12-24T07:16:59;5.25;;;1.85;;
21822;SDS011;11074;48.596;9.238;2022-12-24T07:19:25;5.90;;;2.40;;
21822;SDS011;11074;48.596;9.238;2022-12-24T07:21:50;6.20;;;1.92;;
21822;SDS011;11074;48.596;9.238;2022-12-24T07:24:16;5.07;;;1.90;;
21822;SDS011;11074;48.596;9.238;2022-12-24T07:26:42;5.13;;;1.88;;
21822;SDS011;11074;48.596;9.238;2022-12-24T07:29:08;5.00;;;1.80;;
21822;SDS011;11074;48.596;9.238;2022-12-24T07:31:33;3.78;;;1.60;;
21822;SDS011;11074;48.596;9.238;2022-12-24T07:33:59;7.22;;;2.28;;
21822;SDS011;11074;48.596;9.238;2022-12-24T07:36:25;8.02;;;2.90;;
21822;SDS011;11074;48.596;9.238;2022-12-24T07:38:52;8.82;;;2.53;;
21822;SDS011;11074;48.596;9.238;2022-12-24T07:41:21;6.85;;;2.35;;
21822;SDS011;11074;48.596;9.238;2022-12-24T07:43:47;8.02;;;3.10;;
21822;SDS011;11074;48.596;9.238;2022-12-24T07:46:13;9.27;;;3.90;;
21822;SDS011;11074;48.596;9.238;2022-12-24T07:48:39;7.15;;;3.58;;
21822;SDS011;11074;48.596;9.238;2022-12-24T07:51:10;7.00;;;3.78;;
21822;SDS011;11074;48.596;9.238;2022-12-24T07:53:36;8.60;;;2.92;;
21822;SDS011;11074;48.596;9.238;2022-12-24T07:56:02;8.75;;;3.60;;
21822;SDS011;11074;48.596;9.238;2022-12-24T07:58:27;6.65;;;3.40;;
21822;SDS011;11074;48.596;9.238;2022-12-24T08:00:54;6.57;;;3.50;;
21822;SDS011;11074;48.596;9.238;2022-12-24T08:03:24;7.05;;;3.20;;
21822;SDS011;11074;48.596;9.238;2022-12-24T08:05:50;7.95;;;3.53;;
21822;SDS011;11074;48.596;9.238;2022-12-24T08:08:19;7.95;;;3.20;;
21822;SDS011;11074;48.596;9.238;2022-12-24T08:10:45;9.43;;;3.30;;
21822;SDS011;11074;48.596;9.238;2022-12-24T08:13:11;9.27;;;2.92;;
21822;SDS011;11074;48.596;9.238;2022-12-24T08:15:38;9.18;;;2.58;;
21822;SDS011;11074;48.596;9.238;2022-12-24T08:18:04;8.95;;;3.65;;
21822;SDS011;11074;48.596;9.238;2022-12-24T08:20:30;6.50;;;2.60;;
21822;SDS011;11074;48.596;9.238;2022-12-24T08:22:56;6.00;;;2.67;;
21822;SDS011;11074;48.596;9.238;2022-12-24T08:25:21;8.50;;;3.05;;
21822;SDS011;11074;48.596;9.238;2022-12-24T08:27:47;7.00;;;2.90;;
21822;SDS011;11074;48.596;9.238;2022-12-24T08:30:13;6.28;;;2.85;;
21822;SDS011;11074;48.596;9.238;2022-12-24T08:32:39;9.68;;;3.35;;
21822;SDS011;11074;48.596;9.238;2022-12-24T08:35:05;12.38;;;4.57;;
21822;SDS011;11074;48.596;9.238;2022-12-24T08:37:31;8.20;;;3.22;;
21822;SDS011;11074;48.596;9.238;2022-12-24T08:39:57;9.45;;;3.63;;
21822;SDS011;11074;48.596;9.238;2022-12-24T08:42:23;12.40;;;4.82;;
21822;SDS011;11074;48.596;9.238;2022-12-24T08:44:48;10.50;;;4.05;;
21822;SDS011;11074;48.596;9.238;2022-12-24T08:47:14;9.88;;;3.60;;
21822;SDS011;11074;48.596;9.238;2022-12-24T08:49:39;8.15;;;3.53;;
21822;SDS011;11074;48.596;9.238;2022-12-24T08:52:05;9.05;;;3.17;;
21822;SDS011;11074;48.596;9.238;2022-12-24T08:54:31;11.80;;;3.30;;
21822;SDS011;11074;48.596;9.238;2022-12-24T08:56:57;9.20;;;3.50;;
21822;SDS011;11074;48.596;9.238;2022-12-24T08:59:22;10.50;;;3.25;;
21822;SDS011;11074;48.596;9.238;2022-12-24T09:01:48;10.23;;;3.25;;
21822;SDS011;11074;48.596;9.238;2022-12-24T09:04:14;14.40;;;3.10;;
21822;SDS011;11074;48.596;9.238;2022-12-24T09:06:39;14.23;;;3.78;;
21822;SDS011;11074;48.596;9.238;2022-12-24T09:09:05;10.27;;;3.65;;
21822;SDS011;11074;48.596;9.238;2022-12-24T09:11:32;13.32;;;3.90;;
21822;SDS011;11074;48.596;9.238;2022-12-24T09:13:59;12.63;;;4.47;;
21822;SDS011;11074;48.596;9.238;2022-12-24T09:16:26;13.43;;;4.32;;
21822;SDS011;11074;48.596;9.238;2022-12-24T09:18:51;11.35;;;3.28;;
21822;SDS011;11074;48.596;9.238;2022-12-24T09:21:17;10.10;;;4.30;;
21822;SDS011;11074;48.596;9.238;2022-12-24T09:23:44;10.43;;;3.97;;
21822;SDS011;11074;48.596;9.238;2022-12-24T09:26:22;12.85;;;4.00;;
21822;SDS011;11074;48.596;9.238;2022-12-24T09:28:50;10.30;;;3.42;;
21822;SDS011;11074;48.596;9.238;2022-12-24T09:31:17;10.00;;;3.30;;
21822;SDS011;11074;48.596;9.238;2022-12-24T09:33:44;13.77;;;3.20;;
21822;SDS011;11074;48.596;9.238;2022-12-24T09:36:12;10.15;;;3.13;;
21822;SDS011;11074;48.596;9.238;2022-12-24T09:38:39;11.60;;;2.60;;
21822;SDS011;11074;48.596;9.238;2022-12-24T09:43:53;12.10;;;3.63;;
21822;SDS011;11074;48.596;9.238;2022-12-24T09:46:33;12.43;;;3.25;;
21822;SDS011;11074;48.596;9.238;2022-12-24T09:49:09;9.27;;;3.15;;
21822;SDS011;11074;48.596;9.238;2022-12-24T09:51:44;12.20;;;3.08;;
21822;SDS011;11074;48.596;9.238;2022-12-24T09:54:21;8.00;;;3.03;;
21822;SDS011;11074;48.596;9.238;2022-12-24T09:56:52;8.82;;;3.22;;
21822;SDS011;11074;48.596;9.238;2022-12-24T09:59:25;9.63;;;3.00;;
21822;SDS011;11074;48.596;9.238;2022-12-24T10:02:24;9.80;;;2.97;;
21822;SDS011;11074;48.596;9.238;2022-12-24T10:04:49;8.57;;;2.72;;
21822;SDS011;11074;48.596;9.238;2022-12-24T10:10:27;12.05;;;2.63;;
21822;SDS011;11074;48.596;9.238;2022-12-24T10:15:56;14.77;;;4.93;;
21822;SDS011;11074;48.596;9.238;2022-12-24T10:18:53;12.93;;;3.70;;
21822;SDS011;11074;48.596;9.238;2022-12-24T10:21:45;12.73;;;3.45;;
21822;SDS011;11074;48.596;9.238;2022-12-24T10:24:34;15.68;;;4.68;;
21822;SDS011;11074;48.596;9.238;2022-12-24T10:27:13;9.68;;;3.10;;
21822;SDS011;11074;48.596;9.238;2022-12-24T10:29:44;14.55;;;5.05;;
21822;SDS011;11074;48.596;9.238;2022-12-24T10:32:27;14.40;;;4.13;;
21822;SDS011;11074;48.596;9.238;2022-12-24T10:34:58;12.93;;;3.55;;
21822;SDS011;11074;48.596;9.238;2022-12-24T10:37:30;13.27;;;3.50;;
21822;SDS011;11074;48.596;9.238;2022-12-24T10:39:57;13.50;;;3.92;;
21822;SDS011;11074;48.596;9.238;2022-12-24T10:42:26;10.80;;;3.42;;
21822;SDS011;11074;48.596;9.238;2022-12-24T10:45:04;15.40;;;3.05;;
21822;SDS011;11074;48.596;9.238;2022-12-24T10:47:35;10.10;;;3.20;;
21822;SDS011;11074;48.596;9.238;2022-12-24T10:50:50;10.43;;;2.58;;
21822;SDS011;11074;48.596;9.238;2022-12-24T10:52:50;8.35;;;2.83;;
21822;SDS011;11074;48.596;9.238;2022-12-24T10:55:28;11.38;;;3.10;;
21822;SDS011;11074;48.596;9.238;2022-12-24T10:57:59;10.13;;;2.47;;
21822;SDS011;11074;48.596;9.238;2022-12-24T11:00:29;11.65;;;2.60;;
21822;SDS011;11074;48.596;9.238;2022-12-24T11:05:38;11.43;;;2.03;;
21822;SDS011;11074;48.596;9.238;2022-12-24T11:08:05;11.75;;;2.42;;
21822;SDS011;11074;48.596;9.238;2022-12-24T11:10:38;9.65;;;2.00;;
21822;SDS011;11074;48.596;9.238;2022-12-24T11:13:22;10.40;;;2.28;;
21822;SDS011;11074;48.596;9.238;2022-12-24T11:15:59;9.95;;;2.30;;
21822;SDS011;11074;48.596;9.238;2022-12-24T11:18:33;9.63;;;2.20;;
21822;SDS011;11074;48.596;9.238;2022-12-24T11:21:08;8.98;;;1.90;;
21822;SDS011;11074;48.596;9.238;2022-12-24T11:23:33;10.07;;;2.22;;
21822;SDS011;11074;48.596;9.238;2022-12-24T11:25:59;8.13;;;1.98;;
21822;SDS011;11074;48.596;9.238;2022-12-24T11:28:27;7.47;;;2.00;;
21822;SDS011;11074;48.596;9.238;2022-12-24T11:31:01;6.07;;;1.58;;
21822;SDS011;11074;48.596;9.238;2022-12-24T11:33:45;8.27;;;1.80;;
21822;SDS011;11074;48.596;9.238;2022-12-24T11:36:14;7.40;;;1.80;;
21822;SDS011;11074;48.596;9.238;2022-12-24T11:38:51;11.15;;;2.17;;
21822;SDS011;11074;48.596;9.238;2022-12-24T11:41:21;8.35;;;2.05;;
21822;SDS011;11074;48.596;9.238;2022-12-24T11:43:50;9.27;;;1.98;;
21822;SDS011;11074;48.596;9.238;2022-12-24T11:46:34;7.68;;;2.00;;
21822;SDS011;11074;48.596;9.238;2022-12-24T11:49:26;8.55;;;2.33;;
21822;SDS011;11074;48.596;9.238;2022-12-24T11:54:44;8.18;;;2.28;;
21822;SDS011;11074;48.596;9.238;2022-12-24T11:57:42;6.25;;;1.98;;
21822;SDS011;11074;48.596;9.238;2022-12-24T12:00:18;8.80;;;2.15;;
21822;SDS011;11074;48.596;9.238;2022-12-24T12:02:45;12.70;;;2.70;;
21822;SDS011;11074;48.596;9.238;2022-12-24T12:05:20;9.35;;;2.63;;
21822;SDS011;11074;48.596;9.238;2022-12-24T12:07:53;11.35;;;2.92;;
21822;SDS011;11074;48.596;9.238;2022-12-24T12:10:30;9.65;;;2.22;;
21822;SDS011;11074;48.596;9.238;2022-12-24T12:13:13;10.95;;;2.00;;
21822;SDS011;11074;48.596;9.238;2022-12-24T12:16:00;9.05;;;1.90;;
21822;SDS011;11074;48.596;9.238;2022-12-24T12:18:40;13.48;;;2.72;;
21822;SDS011;11074;48.596;9.238;2022-12-24T12:21:31;9.30;;;1.95;;
21822;SDS011;11074;48.596;9.238;2022-12-24T12:24:14;9.43;;;2.20;;
21822;SDS011;11074;48.596;9.238;2022-12-24T12:26:56;12.02;;;2.80;;
21822;SDS011;11074;48.596;9.238;2022-12-24T12:30:23;13.70;;;2.83;;
21822;SDS011;11074;48.596;9.238;2022-12-24T12:32:40;10.52;;;2.75;;
21822;SDS011;11074;48.596;9.238;2022-12-24T12:38:18;9.43;;;2.40;;
21822;SDS011;11074;48.596;9.238;2022-12-24T12:41:10;10.73;;;2.58;;
21822;SDS011;11074;48.596;9.238;2022-12-24T12:53:23;10.45;;;2.17;;
21822;SDS011;11074;48.596;9.238;2022-12-24T12:56:19;11.25;;;3.17;;
21822;SDS011;11074;48.596;9.238;2022-12-24T12:59:10;10.63;;;2.40;;
21822;SDS011;11074;48.596;9.238;2022-12-24T13:21:47;8.93;;;2.15;;
21822;SDS011;11074;48.596;9.238;2022-12-24T13:24:20;9.82;;;2.17;;
21822;SDS011;11074;48.596;9.238;2022-12-24T13:34:47;8.70;;;1.95;;
21822;SDS011;11074;48.596;9.238;2022-12-24T13:47:57;8.90;;;3.10;;
21822;SDS011;11074;48.596;9.238;2022-12-24T13:56:08;10.95;;;3.03;;
21822;SDS011;11074;48.596;9.238;2022-12-24T13:58:49;9.32;;;2.60;;
21822;SDS011;11074;48.596;9.238;2022-12-24T14:01:35;11.43;;;3.72;;
21822;SDS011;11074;48.596;9.238;2022-12-24T14:04:06;10.55;;;3.28;;
21822;SDS011;11074;48.596;9.238;2022-12-24T14:06:46;8.80;;;3.08;;
21822;SDS011;11074;48.596;9.238;2022-12-24T14:09:20;14.18;;;3.78;;
21822;SDS011;11074;48.596;9.238;2022-12-24T14:14:30;11.95;;;4.65;;
21822;SDS011;11074;48.596;9.238;2022-12-24T14:17:09;15.82;;;5.43;;
21822;SDS011;11074;48.596;9.238;2022-12-24T14:19:43;16.73;;;5.68;;
21822;SDS011;11074;48.596;9.238;2022-12-24T14:25:12;12.35;;;4.68;;
21822;SDS011;11074;48.596;9.238;2022-12-24T14:27:45;10.73;;;4.15;;
21822;SDS011;11074;48.596;9.238;2022-12-24T14:30:18;11.25;;;3.75;;
21822;SDS011;11074;48.596;9.238;2022-12-24T14:32:47;10.18;;;3.13;;
21822;SDS011;11074;48.596;9.238;2022-12-24T14:35:15;9.07;;;2.67;;
21822;SDS011;11074;48.596;9.238;2022-12-24T14:40:47;12.38;;;3.22;;
21822;SDS011;11074;48.596;9.238;2022-12-24T14:43:41;10.70;;;3.80;;
21822;SDS011;11074;48.596;9.238;2022-12-24T14:46:56;12.35;;;3.67;;
21822;SDS011;11074;48.596;9.238;2022-12-24T14:49:52;11.00;;;4.15;;
21822;SDS011;11074;48.596;9.238;2022-12-24T14:52:36;13.93;;;4.85;;
21822;SDS011;11074;48.596;9.238;2022-12-24T14:55:37;14.10;;;6.70;;
21822;SDS011;11074;48.596;9.238;2022-12-24T14:58:18;28.55;;;8.32;;
21822;SDS011;11074;48.596;9.238;2022-12-24T15:00:56;23.27;;;6.30;;
21822;SDS011;11074;48.596;9.238;2022-12-24T15:03:42;20.20;;;5.32;;
21822;SDS011;11074;48.596;9.238;2022-12-24T15:06:08;17.80;;;5.15;;
21822;SDS011;11074;48.596;9.238;2022-12-24T15:08:39;11.85;;;3.80;;
21822;SDS011;11074;48.596;9.238;2022-12-24T15:11:16;8.60;;;3.42;;
21822;SDS011;11074;48.596;9.238;2022-12-24T15:13:47;8.23;;;3.58;;
21822;SDS011;11074;48.596;9.238;2022-12-24T15:16:20;11.73;;;3.45;;
21822;SDS011;11074;48.596;9.238;2022-12-24T15:18:51;13.15;;;3.50;;
21822;SDS011;11074;48.596;9.238;2022-12-24T15:21:43;13.75;;;3.50;;
21822;SDS011;11074;48.596;9.238;2022-12-24T15:27:10;10.75;;;2.92;;
21822;SDS011;11074;48.596;9.238;2022-12-24T15:29:50;9.93;;;3.03;;
21822;SDS011;11074;48.596;9.238;2022-12-24T15:32:22;11.80;;;3.17;;
21822;SDS011;11074;48.596;9.238;2022-12-24T15:34:49;7.82;;;2.60;;
21822;SDS011;11074;48.596;9.238;2022-12-24T15:37:22;9.88;;;3.10;;
21822;SDS011;11074;48.596;9.238;2022-12-24T15:39:54;7.55;;;2.65;;
21822;SDS011;11074;48.596;9.238;2022-12-24T15:42:33;9.07;;;2.65;;
21822;SDS011;11074;48.596;9.238;2022-12-24T15:45:06;5.05;;;2.15;;
21822;SDS011;11074;48.596;9.238;2022-12-24T15:48:07;11.35;;;2.90;;
21822;SDS011;11074;48.596;9.238;2022-12-24T15:50:36;7.32;;;2.58;;
21822;SDS011;11074;48.596;9.238;2022-12-24T15:53:16;10.90;;;3.40;;
21822;SDS011;11074;48.596;9.238;2022-12-24T15:56:00;13.52;;;4.78;;
21822;SDS011;11074;48.596;9.238;2022-12-24T15:58:39;9.95;;;3.20;;
21822;SDS011;11074;48.596;9.238;2022-12-24T16:03:37;13.77;;;5.55;;
21822;SDS011;11074;48.596;9.238;2022-12-24T16:06:25;15.85;;;9.18;;
21822;SDS011;11074;48.596;9.238;2022-12-24T16:08:52;12.05;;;5.80;;
21822;SDS011;11074;48.596;9.238;2022-12-24T16:11:23;13.52;;;5.80;;
21822;SDS011;11074;48.596;9.238;2022-12-24T16:16:42;16.95;;;7.47;;
21822;SDS011;11074;48.596;9.238;2022-12-24T16:19:17;18.05;;;9.25;;
21822;SDS011;11074;48.596;9.238;2022-12-24T16:21:54;16.58;;;8.35;;
21822;SDS011;11074;48.596;9.238;2022-12-24T16:24:46;19.08;;;8.32;;
21822;SDS011;11074;48.596;9.238;2022-12-24T16:27:11;16.20;;;7.22;;
21822;SDS011;11074;48.596;9.238;2022-12-24T16:29:38;12.45;;;5.28;;
21822;SDS011;11074;48.596;9.238;2022-12-24T16:32:04;14.57;;;5.70;;
21822;SDS011;11074;48.596;9.238;2022-12-24T16:34:30;8.90;;;4.78;;
21822;SDS011;11074;48.596;9.238;2022-12-24T16:36:57;15.40;;;6.50;;
21822;SDS011;11074;48.596;9.238;2022-12-24T16:39:25;12.93;;;6.90;;
21822;SDS011;11074;48.596;9.238;2022-12-24T16:41:57;14.18;;;6.03;;
21822;SDS011;11074;48.596;9.238;2022-12-24T16:44:44;10.35;;;6.28;;
21822;SDS011;11074;48.596;9.238;2022-12-24T16:47:17;13.00;;;6.68;;
21822;SDS011;11074;48.596;9.238;2022-12-24T16:49:47;16.27;;;7.85;;
21822;SDS011;11074;48.596;9.238;2022-12-24T16:52:18;13.15;;;7.22;;
21822;SDS011;11074;48.596;9.238;2022-12-24T16:54:48;13.13;;;6.40;;
21822;SDS011;11074;48.596;9.238;2022-12-24T16:57:14;22.08;;;10.65;;
21822;SDS011;11074;48.596;9.238;2022-12-24T16:59:40;33.58;;;18.33;;
21822;SDS011;11074;48.596;9.238;2022-12-24T17:02:06;38.13;;;20.02;;